createdAt,value
2023-05-17T00:01:06.547Z,8.69
2023-05-17T00:04:08.270Z,8.64
2023-05-17T00:07:09.839Z,8.58
2023-05-17T00:10:11.603Z,8.52
2023-05-17T00:13:13.184Z,8.49
2023-05-17T00:16:14.793Z,8.43
2023-05-17T00:19:16.593Z,8.40
2023-05-17T00:22:18.293Z,8.37
2023-05-17T00:25:19.871Z,8.32
2023-05-17T00:28:21.496Z,8.29
2023-05-17T00:31:23.089Z,8.28
2023-05-17T00:34:24.762Z,8.24
2023-05-17T00:37:26.359Z,8.21
2023-05-17T00:40:27.991Z,8.16
2023-05-17T00:43:29.592Z,8.12
2023-05-17T00:46:31.262Z,8.08
2023-05-17T00:49:33.026Z,8.03
2023-05-17T00:52:36.132Z,7.99
2023-05-17T00:55:37.945Z,7.95
2023-05-17T00:58:40.828Z,7.90
2023-05-17T01:01:43.572Z,7.85
2023-05-17T01:04:45.293Z,7.83
2023-05-17T01:07:46.891Z,7.80
2023-05-17T01:11:10.063Z,7.77
2023-05-17T01:14:14.677Z,7.76
2023-05-17T01:17:37.868Z,7.74
2023-05-17T01:20:45.369Z,7.72
2023-05-17T01:24:09.912Z,7.69
2023-05-17T01:27:14.669Z,7.69
2023-05-17T01:30:19.704Z,7.68
2023-05-17T01:33:21.610Z,7.67
2023-05-17T01:36:23.415Z,7.68
2023-05-17T01:39:25.374Z,7.65
2023-05-17T01:42:32.788Z,7.64
2023-05-17T01:45:44.263Z,7.64
2023-05-17T01:48:56.405Z,7.63
2023-05-17T01:52:07.594Z,7.62
2023-05-17T01:55:26.061Z,7.57
2023-05-17T01:58:30.723Z,7.56
2023-05-17T02:01:32.864Z,7.55
2023-05-17T02:04:36.142Z,7.56
2023-05-17T02:07:37.853Z,7.55
2023-05-17T02:10:39.911Z,7.52
2023-05-17T02:13:41.490Z,7.51
2023-05-17T02:16:43.078Z,7.49
2023-05-17T02:19:44.654Z,7.47
2023-05-17T02:22:46.418Z,7.46
2023-05-17T02:25:48.084Z,7.43
2023-05-17T02:28:49.681Z,7.42
2023-05-17T02:31:51.324Z,7.40
2023-05-17T02:34:52.911Z,7.37
2023-05-17T02:37:54.463Z,7.31
2023-05-17T02:40:56.107Z,7.26
2023-05-17T02:43:57.746Z,7.25
2023-05-17T02:46:59.382Z,7.22
2023-05-17T02:50:01.247Z,7.22
2023-05-17T02:53:02.872Z,7.21
2023-05-17T02:56:04.612Z,7.19
2023-05-17T02:59:06.198Z,7.18
2023-05-17T03:02:07.967Z,7.18
2023-05-17T03:05:10.104Z,7.17
2023-05-17T03:08:11.823Z,7.16
2023-05-17T03:11:13.462Z,7.17
2023-05-17T03:14:15.068Z,7.17
2023-05-17T03:17:16.615Z,7.18
2023-05-17T03:20:18.479Z,7.16
2023-05-17T03:23:20.113Z,7.16
2023-05-17T03:26:23.077Z,7.12
2023-05-17T03:29:24.719Z,7.10
2023-05-17T03:32:26.380Z,7.09
2023-05-17T03:35:28.213Z,7.06
2023-05-17T03:38:30.111Z,7.06
2023-05-17T03:41:32.245Z,7.05
2023-05-17T03:44:33.811Z,7.02
2023-05-17T03:47:35.460Z,7.02
2023-05-17T03:50:37.173Z,7.00
2023-05-17T03:53:43.176Z,7.00
2023-05-17T03:56:47.423Z,7.00
2023-05-17T03:59:49.145Z,7.00
2023-05-17T04:02:52.133Z,6.99
2023-05-17T04:05:53.858Z,6.96
2023-05-17T04:08:55.747Z,6.97
2023-05-17T04:11:57.523Z,6.99
2023-05-17T04:14:59.336Z,7.01
2023-05-17T04:18:01.076Z,7.02
2023-05-17T04:21:03.453Z,7.05
2023-05-17T04:24:05.305Z,7.08
2023-05-17T04:27:07.314Z,7.09
2023-05-17T04:30:09.362Z,7.08
2023-05-17T04:33:12.713Z,7.06
2023-05-17T04:36:15.965Z,7.04
2023-05-17T04:39:18.243Z,7.02
2023-05-17T04:42:19.802Z,7.01
2023-05-17T04:45:21.435Z,7.02
2023-05-17T04:48:23.161Z,7.01
2023-05-17T04:51:24.864Z,7.02
2023-05-17T04:54:27.265Z,7.02
2023-05-17T04:57:28.865Z,7.02
2023-05-17T05:00:30.455Z,7.05
2023-05-17T05:03:32.062Z,7.04
2023-05-17T05:06:34.528Z,7.06
2023-05-17T05:09:36.111Z,7.04
2023-05-17T05:12:37.954Z,7.04
2023-05-17T05:15:39.562Z,7.05
2023-05-17T05:18:41.249Z,7.02
2023-05-17T05:21:46.152Z,7.02
2023-05-17T05:24:47.789Z,7.03
2023-05-17T05:27:49.432Z,7.03
2023-05-17T05:30:51.123Z,7.04
2023-05-17T05:33:52.726Z,7.06
2023-05-17T05:36:54.356Z,7.08
2023-05-17T05:39:55.898Z,7.13
2023-05-17T05:42:57.539Z,7.17
2023-05-17T05:45:59.123Z,7.19
2023-05-17T05:49:00.852Z,7.21
2023-05-17T05:52:02.765Z,7.24
2023-05-17T05:55:04.976Z,7.43
2023-05-17T05:58:06.550Z,7.82
2023-05-17T06:01:08.284Z,8.20
2023-05-17T06:04:10.005Z,8.39
2023-05-17T06:07:12.335Z,8.41
2023-05-17T06:10:14.168Z,8.35
2023-05-17T06:13:15.873Z,8.30
2023-05-17T06:16:17.777Z,8.23
2023-05-17T06:19:20.386Z,8.16
2023-05-17T06:22:22.182Z,8.11
2023-05-17T06:25:23.851Z,8.05
2023-05-17T06:28:26.443Z,8.00
2023-05-17T06:31:28.058Z,7.96
2023-05-17T06:34:29.631Z,7.90
2023-05-17T06:37:32.096Z,7.88
2023-05-17T06:40:33.871Z,7.86
2023-05-17T06:43:37.107Z,7.83
2023-05-17T06:46:39.409Z,7.89
2023-05-17T06:49:41.207Z,8.17
2023-05-17T06:52:42.769Z,8.32
2023-05-17T06:55:44.635Z,8.37
2023-05-17T06:58:46.218Z,8.37
2023-05-17T07:01:48.004Z,8.38
2023-05-17T07:04:49.822Z,8.35
2023-05-17T07:07:51.471Z,8.30
2023-05-17T07:10:53.562Z,8.28
2023-05-17T07:13:55.138Z,8.24
2023-05-17T07:16:56.688Z,8.21
2023-05-17T07:19:58.507Z,8.19
2023-05-17T07:23:00.300Z,8.18
2023-05-17T07:26:01.925Z,8.18
2023-05-17T07:29:03.688Z,8.18
2023-05-17T07:32:05.650Z,8.20
2023-05-17T07:35:07.599Z,8.23
2023-05-17T07:38:10.802Z,8.28
2023-05-17T07:41:13.934Z,8.31
2023-05-17T07:44:15.548Z,8.33
2023-05-17T07:47:18.295Z,8.36
2023-05-17T07:50:20.062Z,8.45
2023-05-17T07:53:21.827Z,8.54
2023-05-17T07:56:23.636Z,8.65
2023-05-17T07:59:25.541Z,8.74
2023-05-17T08:02:27.142Z,8.76
2023-05-17T08:05:28.982Z,8.76
2023-05-17T08:08:30.807Z,8.81
2023-05-17T08:11:35.167Z,8.82
2023-05-17T08:14:36.976Z,8.81
2023-05-17T08:17:38.628Z,9.00
2023-05-17T08:20:40.305Z,9.16
2023-05-17T08:23:42.125Z,9.15
2023-05-17T08:26:44.711Z,9.12
2023-05-17T08:29:47.424Z,9.13
2023-05-17T08:32:49.166Z,9.17
2023-05-17T08:35:52.860Z,9.17
2023-05-17T08:38:54.629Z,9.13
2023-05-17T08:41:59.601Z,9.12
2023-05-17T08:45:01.357Z,9.05
2023-05-17T08:48:03.475Z,9.01
2023-05-17T08:51:06.361Z,8.97
2023-05-17T08:54:08.636Z,8.99
2023-05-17T08:57:11.827Z,9.03
2023-05-17T09:00:19.602Z,9.04
2023-05-17T09:03:22.638Z,8.99
2023-05-17T09:06:24.582Z,8.94
2023-05-17T09:09:26.796Z,8.90
2023-05-17T09:12:28.374Z,8.91
2023-05-17T09:15:34.166Z,8.94
2023-05-17T09:18:35.979Z,8.91
2023-05-17T09:21:38.063Z,8.93
2023-05-17T09:24:41.558Z,9.00
2023-05-17T09:27:43.154Z,9.04
2023-05-17T09:30:44.786Z,9.04
2023-05-17T09:33:48.484Z,9.06
2023-05-17T09:36:51.445Z,9.13
2023-05-17T09:39:55.152Z,9.20
2023-05-17T09:42:58.176Z,9.24
2023-05-17T09:45:59.845Z,9.20
2023-05-17T09:49:03.452Z,9.17
2023-05-17T09:52:08.079Z,9.25
2023-05-17T09:55:11.865Z,9.38
2023-05-17T09:58:14.177Z,9.50
2023-05-17T10:01:17.686Z,9.60
2023-05-17T10:04:23.302Z,9.79
2023-05-17T10:07:26.686Z,9.82
2023-05-17T10:10:30.095Z,9.75
2023-05-17T10:13:42.228Z,9.68
2023-05-17T10:16:45.609Z,9.64
2023-05-17T10:19:47.845Z,9.59
2023-05-17T10:22:50.538Z,9.58
2023-05-17T10:25:52.390Z,9.53
2023-05-17T10:29:00.741Z,9.49
2023-05-17T10:32:10.597Z,9.49
2023-05-17T10:35:15.489Z,9.52
2023-05-17T10:38:19.139Z,9.60
2023-05-17T10:41:24.432Z,9.67
2023-05-17T10:44:26.552Z,9.71
2023-05-17T10:47:34.630Z,9.80
2023-05-17T10:50:54.043Z,9.81
2023-05-17T10:54:20.857Z,9.82
2023-05-17T11:00:42.408Z,10.01
2023-05-17T11:03:44.370Z,10.02
2023-05-17T11:06:46.127Z,10.04
2023-05-17T11:09:56.441Z,10.07
2023-05-17T11:12:58.149Z,10.04
2023-05-17T11:16:05.070Z,9.97
2023-05-17T11:19:09.328Z,9.91
2023-05-17T11:22:12.335Z,9.87
2023-05-17T11:25:14.735Z,9.85
2023-05-17T11:28:22.381Z,9.87
2023-05-17T11:31:35.998Z,9.90
2023-05-17T11:34:38.594Z,9.97
2023-05-17T11:37:44.200Z,10.09
2023-05-17T11:40:47.792Z,10.24
2023-05-17T11:43:50.010Z,10.37
2023-05-17T11:46:53.302Z,10.36
2023-05-17T11:49:56.726Z,10.36
2023-05-17T11:53:00.329Z,10.34
2023-05-17T11:56:06.046Z,10.34
2023-05-17T11:59:07.751Z,10.39
2023-05-17T12:02:10.043Z,10.42
2023-05-17T12:05:12.546Z,10.43
2023-05-17T12:08:18.938Z,10.44
2023-05-17T12:11:21.934Z,10.44
2023-05-17T12:14:24.559Z,10.38
2023-05-17T12:17:35.407Z,10.35
2023-05-17T12:20:39.073Z,10.28
2023-05-17T12:23:47.860Z,10.24
2023-05-17T12:26:50.688Z,10.19
2023-05-17T12:29:52.407Z,10.14
2023-05-17T12:32:54.414Z,10.15
2023-05-17T12:35:56.381Z,10.16
2023-05-17T12:38:58.317Z,10.18
2023-05-17T12:42:01.345Z,10.21
2023-05-17T12:45:03.258Z,10.22
2023-05-17T12:48:05.375Z,10.22
2023-05-17T12:51:15.376Z,10.25
2023-05-17T12:54:28.139Z,10.29
2023-05-17T12:57:30.221Z,10.26
2023-05-17T13:00:32.025Z,10.26
2023-05-17T13:03:35.056Z,10.20
2023-05-17T13:06:50.133Z,10.16
2023-05-17T13:09:51.938Z,10.22
2023-05-17T13:13:00.533Z,10.39
2023-05-17T13:16:02.734Z,10.49
2023-05-17T13:19:15.415Z,10.50
2023-05-17T13:22:17.473Z,10.55
2023-05-17T13:25:19.650Z,10.59
2023-05-17T13:28:21.318Z,10.62
2023-05-17T13:31:22.970Z,10.57
2023-05-17T13:34:24.737Z,10.50
2023-05-17T13:37:26.558Z,10.45
2023-05-17T13:40:28.400Z,10.41
2023-05-17T13:43:30.364Z,10.37
2023-05-17T13:46:32.155Z,10.33
2023-05-17T13:49:33.888Z,10.30
2023-05-17T13:52:35.560Z,10.31
2023-05-17T13:55:39.594Z,10.28
2023-05-17T13:58:41.593Z,10.24
2023-05-17T14:01:43.898Z,10.21
2023-05-17T14:04:45.596Z,10.18
2023-05-17T14:07:47.321Z,10.17
2023-05-17T14:10:49.048Z,10.15
2023-05-17T14:13:51.081Z,10.17
2023-05-17T14:16:52.745Z,10.16
2023-05-17T14:19:55.053Z,10.18
2023-05-17T14:22:56.780Z,10.21
2023-05-17T14:25:58.448Z,10.27
2023-05-17T14:29:00.307Z,10.34
2023-05-17T14:32:02.050Z,10.40
2023-05-17T14:35:04.358Z,10.45
2023-05-17T14:38:06.184Z,10.49
2023-05-17T14:41:08.072Z,10.52
2023-05-17T14:44:09.724Z,10.48
2023-05-17T14:47:11.635Z,10.46
2023-05-17T14:50:13.262Z,10.47
2023-05-17T14:53:14.953Z,10.42
2023-05-17T14:56:16.935Z,10.38
2023-05-17T14:59:18.687Z,10.35
2023-05-17T15:02:20.391Z,10.35
2023-05-17T15:05:22.225Z,10.39
2023-05-17T15:08:24.087Z,10.67
2023-05-17T15:11:25.790Z,10.99
2023-05-17T15:14:27.476Z,11.22
2023-05-17T15:17:29.207Z,11.23
2023-05-17T15:20:31.401Z,11.14
2023-05-17T15:23:33.119Z,11.01
2023-05-17T15:26:34.951Z,10.88
2023-05-17T15:29:38.925Z,10.75
2023-05-17T15:32:40.999Z,10.60
2023-05-17T15:35:43.382Z,10.50
2023-05-17T15:38:45.143Z,10.42
2023-05-17T15:41:46.834Z,10.36
2023-05-17T15:44:48.504Z,10.32
2023-05-17T15:47:50.695Z,10.27
2023-05-17T15:50:52.636Z,10.23
2023-05-17T15:53:55.162Z,10.21
2023-05-17T15:56:56.887Z,10.20
2023-05-17T15:59:58.536Z,10.17
2023-05-17T16:03:00.649Z,10.11
2023-05-17T16:06:04.430Z,10.03
2023-05-17T16:09:06.219Z,9.95
2023-05-17T16:12:08.217Z,9.86
2023-05-17T16:15:10.388Z,9.83
2023-05-17T16:18:14.972Z,9.82
2023-05-17T16:21:16.933Z,9.79
2023-05-17T16:24:19.299Z,9.75
2023-05-17T16:27:21.883Z,9.76
2023-05-17T16:30:24.016Z,9.74
2023-05-17T16:33:25.948Z,9.71
2023-05-17T16:36:27.912Z,9.66
2023-05-17T16:39:29.717Z,9.61
2023-05-17T16:42:31.698Z,9.55
2023-05-17T16:45:33.659Z,9.52
2023-05-17T16:48:35.320Z,9.48
2023-05-17T16:51:37.050Z,9.43
2023-05-17T16:54:38.800Z,9.37
2023-05-17T16:57:42.132Z,9.31
2023-05-17T17:00:43.794Z,9.28
2023-05-17T17:03:45.642Z,9.25
2023-05-17T17:06:47.652Z,9.22
2023-05-17T17:09:49.299Z,9.18
2023-05-17T17:12:51.018Z,9.17
2023-05-17T17:15:53.171Z,9.13
2023-05-17T17:18:54.987Z,9.09
2023-05-17T17:21:56.680Z,9.06
2023-05-17T17:24:58.357Z,9.06
2023-05-17T17:27:59.998Z,9.05
2023-05-17T17:31:01.580Z,9.03
2023-05-17T17:34:03.148Z,9.03
2023-05-17T17:37:04.973Z,9.08
2023-05-17T17:40:08.059Z,9.04
2023-05-17T17:43:09.693Z,9.02
2023-05-17T17:46:12.146Z,9.00
2023-05-17T17:49:13.844Z,8.98
2023-05-17T17:52:15.494Z,8.95
2023-05-17T17:55:17.140Z,8.90
2023-05-17T17:58:18.758Z,8.89
2023-05-17T18:01:20.451Z,8.87
2023-05-17T18:04:22.139Z,8.87
2023-05-17T18:07:23.777Z,8.87
2023-05-17T18:10:25.538Z,8.89
2023-05-17T18:13:27.211Z,8.87
2023-05-17T18:16:28.912Z,8.81
2023-05-17T18:19:30.711Z,8.77
2023-05-17T18:22:33.154Z,8.76
2023-05-17T18:25:35.194Z,8.72
2023-05-17T18:28:42.281Z,8.71
2023-05-17T18:31:44.497Z,8.69
2023-05-17T18:34:46.168Z,8.67
2023-05-17T18:37:47.812Z,8.66
2023-05-17T18:40:49.582Z,8.64
2023-05-17T18:43:51.185Z,8.61
2023-05-17T18:46:53.965Z,8.60
2023-05-17T18:49:55.817Z,8.56
2023-05-17T18:52:57.467Z,8.53
2023-05-17T18:56:02.655Z,8.51
2023-05-17T18:59:05.161Z,8.48
2023-05-17T19:02:07.820Z,8.46
2023-05-17T19:05:09.511Z,8.43
2023-05-17T19:08:11.221Z,8.40
2023-05-17T19:11:12.818Z,8.59
2023-05-17T19:14:15.077Z,8.55
2023-05-17T19:17:17.072Z,8.52
2023-05-17T19:20:19.050Z,8.49
2023-05-17T19:23:21.434Z,8.45
2023-05-17T19:26:23.042Z,8.42
2023-05-17T19:29:24.894Z,8.40
2023-05-17T19:32:27.048Z,8.38
2023-05-17T19:35:28.778Z,8.36
2023-05-17T19:38:31.286Z,8.36
2023-05-17T19:41:32.859Z,8.35
2023-05-17T19:44:34.444Z,8.36
2023-05-17T19:47:36.006Z,8.37
2023-05-17T19:50:37.773Z,8.39
2023-05-17T19:53:51.462Z,8.41
2023-05-17T19:56:54.950Z,8.42
2023-05-17T19:59:56.532Z,8.40
2023-05-17T20:02:58.282Z,8.38
2023-05-17T20:05:59.957Z,8.35
2023-05-17T20:09:01.948Z,8.35
2023-05-17T20:12:04.094Z,8.37
2023-05-17T20:15:06.399Z,8.38
2023-05-17T20:18:09.224Z,8.38
2023-05-17T20:21:12.876Z,8.38
2023-05-17T20:24:14.587Z,8.37
2023-05-17T20:27:16.227Z,8.37
2023-05-17T20:30:17.857Z,8.38
2023-05-17T20:33:26.260Z,8.39
2023-05-17T20:36:28.887Z,8.40
2023-05-17T20:39:31.136Z,8.40
2023-05-17T20:42:32.761Z,8.40
2023-05-17T20:45:34.480Z,8.39
2023-05-17T20:48:36.786Z,8.37
2023-05-17T20:51:39.085Z,8.56
2023-05-17T20:54:40.715Z,8.60
2023-05-17T20:57:42.334Z,8.61
2023-05-17T21:00:43.947Z,8.57
2023-05-17T21:03:45.854Z,8.53
2023-05-17T21:06:47.593Z,8.49
2023-05-17T21:09:49.212Z,8.47
2023-05-17T21:12:50.919Z,8.47
2023-05-17T21:15:56.393Z,8.46
2023-05-17T21:18:58.072Z,8.46
2023-05-17T21:21:59.690Z,8.43
2023-05-17T21:25:01.259Z,8.41
2023-05-17T21:28:03.037Z,8.41
2023-05-17T21:31:04.827Z,8.40
2023-05-17T21:34:06.449Z,8.36
2023-05-17T21:37:08.000Z,8.33
2023-05-17T21:40:10.366Z,8.31
2023-05-17T21:43:12.064Z,8.29
2023-05-17T21:46:13.758Z,8.26
2023-05-17T21:49:15.523Z,8.22
2023-05-17T21:52:17.804Z,8.22
2023-05-17T21:55:19.515Z,8.21
2023-05-17T21:58:21.323Z,8.22
2023-05-17T22:01:24.248Z,8.21
2023-05-17T22:04:26.342Z,8.19
2023-05-17T22:07:28.056Z,8.17
2023-05-17T22:10:30.590Z,8.17
2023-05-17T22:13:32.724Z,8.17
2023-05-17T22:16:35.967Z,8.24
2023-05-17T22:19:40.690Z,8.17
2023-05-17T22:22:43.025Z,8.13
2023-05-17T22:25:44.725Z,8.05
2023-05-17T22:28:46.484Z,7.99
2023-05-17T22:31:50.254Z,7.92
2023-05-17T22:34:52.940Z,7.88
2023-05-17T22:37:54.863Z,7.82
2023-05-17T22:40:56.596Z,7.77
2023-05-17T22:43:58.216Z,7.73
2023-05-17T22:47:02.464Z,7.69
2023-05-17T22:50:05.099Z,7.67
2023-05-17T22:53:06.873Z,7.62
2023-05-17T22:56:08.562Z,7.57
2023-05-17T22:59:10.256Z,7.53
2023-05-17T23:02:12.444Z,7.49
2023-05-17T23:05:14.386Z,7.45
2023-05-17T23:08:16.419Z,7.41
2023-05-17T23:11:18.154Z,7.37
2023-05-17T23:14:21.771Z,7.30
2023-05-17T23:17:24.124Z,7.26
2023-05-17T23:20:26.619Z,7.24
2023-05-17T23:23:30.008Z,7.22
2023-05-17T23:26:34.018Z,7.51
2023-05-17T23:29:36.286Z,7.62
2023-05-17T23:32:37.958Z,7.63
2023-05-17T23:35:39.610Z,7.60
2023-05-17T23:38:41.217Z,7.58
2023-05-17T23:41:43.136Z,7.54
2023-05-17T23:44:46.530Z,7.49
2023-05-17T23:47:50.209Z,7.46
2023-05-17T23:50:51.958Z,7.40
2023-05-17T23:53:53.536Z,7.35
2023-05-17T23:56:55.907Z,7.29
2023-05-17T23:59:57.494Z,7.25
